createdAt,value
2023-01-29T00:01:49.524Z,19.37
2023-01-29T00:04:16.796Z,18.50
2023-01-29T00:06:43.933Z,20.70
2023-01-29T00:09:11.426Z,17.17
2023-01-29T00:11:38.307Z,21.63
2023-01-29T00:14:05.426Z,19.77
2023-01-29T00:16:32.293Z,20.60
2023-01-29T00:18:58.995Z,21.77
2023-01-29T00:21:25.746Z,22.63
2023-01-29T00:23:55.223Z,21.10
2023-01-29T00:26:22.417Z,21.67
2023-01-29T00:28:49.267Z,21.67
2023-01-29T00:31:18.951Z,21.63
2023-01-29T00:33:46.074Z,19.43
2023-01-29T00:36:14.391Z,18.37
2023-01-29T00:38:41.135Z,17.53
2023-01-29T00:41:34.362Z,15.07
2023-01-29T00:44:20.261Z,15.87
2023-01-29T00:46:47.065Z,16.27
2023-01-29T00:49:13.749Z,14.03
2023-01-29T00:51:40.750Z,14.87
2023-01-29T00:54:07.444Z,16.23
2023-01-29T00:56:36.568Z,16.20
2023-01-29T00:59:04.361Z,16.40
2023-01-29T01:01:49.637Z,16.17
2023-01-29T01:04:16.459Z,16.57
2023-01-29T01:06:43.656Z,16.90
2023-01-29T01:09:29.350Z,16.73
2023-01-29T01:11:56.058Z,16.73
2023-01-29T01:14:22.847Z,15.73
2023-01-29T01:16:49.684Z,15.57
2023-01-29T01:19:16.733Z,13.70
2023-01-29T01:21:45.493Z,14.60
2023-01-29T01:24:12.961Z,16.63
2023-01-29T01:26:39.860Z,16.07
2023-01-29T01:29:06.886Z,14.10
2023-01-29T01:31:33.656Z,14.77
2023-01-29T01:34:00.494Z,16.20
2023-01-29T01:36:27.161Z,19.57
2023-01-29T01:38:54.859Z,18.27
2023-01-29T01:41:39.543Z,21.60
2023-01-29T01:44:58.991Z,20.30
2023-01-29T01:54:15.789Z,20.03
2023-01-29T01:57:09.427Z,18.50
2023-01-29T01:59:47.062Z,17.67
2023-01-29T02:02:38.367Z,18.20
2023-01-29T02:05:34.073Z,17.23
2023-01-29T02:08:29.364Z,18.40
2023-01-29T02:11:22.860Z,18.90
2023-01-29T02:17:25.299Z,18.50
2023-01-29T02:20:32.230Z,20.67
2023-01-29T02:24:09.026Z,18.93
2023-01-29T02:27:31.072Z,20.43
2023-01-29T02:30:53.930Z,21.07
2023-01-29T02:34:12.104Z,21.53
2023-01-29T02:40:50.805Z,17.40
2023-01-29T02:50:25.238Z,18.53
2023-01-29T02:53:04.811Z,16.70
2023-01-29T02:56:53.935Z,17.30
2023-01-29T02:59:30.318Z,16.70
2023-01-29T03:05:15.836Z,15.70
2023-01-29T03:07:59.583Z,14.63
2023-01-29T03:10:40.820Z,14.87
2023-01-29T03:17:01.802Z,17.23
2023-01-29T03:20:09.408Z,16.00
2023-01-29T03:22:41.201Z,15.10
2023-01-29T03:28:39.958Z,16.53
2023-01-29T03:31:51.413Z,17.67
2023-01-29T03:34:42.887Z,17.10
2023-01-29T03:37:45.188Z,18.30
2023-01-29T03:40:16.663Z,15.47
2023-01-29T03:43:15.261Z,18.10
2023-01-29T03:46:02.836Z,15.57
2023-01-29T03:49:46.846Z,14.93
2023-01-29T03:52:43.696Z,17.80
2023-01-29T03:55:21.954Z,15.13
2023-01-29T03:58:54.956Z,15.73
2023-01-29T04:02:15.397Z,15.87
2023-01-29T04:04:56.698Z,14.60
2023-01-29T04:07:44.195Z,16.17
2023-01-29T04:10:19.767Z,16.93
2023-01-29T04:13:02.503Z,15.37
2023-01-29T04:15:41.281Z,16.70
2023-01-29T04:18:13.037Z,18.30
2023-01-29T04:20:40.759Z,16.77
2023-01-29T04:23:19.443Z,17.40
2023-01-29T04:26:08.907Z,18.83
2023-01-29T04:28:57.748Z,20.03
2023-01-29T04:35:09.018Z,20.23
2023-01-29T04:37:48.034Z,18.50
2023-01-29T04:40:45.373Z,17.50
2023-01-29T04:43:41.933Z,19.60
2023-01-29T04:46:21.150Z,22.03
2023-01-29T04:48:59.277Z,20.87
2023-01-29T04:51:58.480Z,21.17
2023-01-29T04:54:34.117Z,21.20
2023-01-29T04:57:17.320Z,18.37
2023-01-29T04:59:59.152Z,24.23
2023-01-29T05:02:39.438Z,24.80
2023-01-29T05:05:10.941Z,25.37
2023-01-29T05:07:40.662Z,27.30
2023-01-29T05:10:13.467Z,22.37
2023-01-29T05:12:49.869Z,25.33
2023-01-29T05:15:24.281Z,21.77
2023-01-29T05:18:23.265Z,24.80
2023-01-29T05:21:01.929Z,23.40
2023-01-29T05:29:30.390Z,25.10
2023-01-29T05:32:28.745Z,27.90
2023-01-29T05:35:04.260Z,24.43
2023-01-29T05:38:02.249Z,23.37
2023-01-29T05:40:44.175Z,24.40
2023-01-29T05:43:30.268Z,24.27
2023-01-29T05:46:24.121Z,25.30
2023-01-29T05:49:08.616Z,22.93
2023-01-29T05:54:59.133Z,24.87
2023-01-29T05:57:34.890Z,19.53
2023-01-29T06:00:16.568Z,21.43
2023-01-29T06:03:01.121Z,21.93
2023-01-29T06:05:37.097Z,18.20
2023-01-29T06:08:12.982Z,18.83
2023-01-29T06:10:54.070Z,20.03
2023-01-29T06:13:26.940Z,18.93
2023-01-29T06:16:00.390Z,19.70
2023-01-29T06:18:33.542Z,20.93
2023-01-29T06:24:12.701Z,15.97
2023-01-29T06:26:45.347Z,18.60
2023-01-29T06:29:21.488Z,17.43
2023-01-29T06:31:51.761Z,18.10
2023-01-29T06:34:18.977Z,17.00
2023-01-29T06:36:46.559Z,16.33
2023-01-29T06:39:13.384Z,15.87
2023-01-29T06:41:55.655Z,13.50
2023-01-29T06:44:23.036Z,15.73
2023-01-29T06:46:59.154Z,15.20
2023-01-29T06:49:26.093Z,12.07
2023-01-29T06:52:02.015Z,13.00
2023-01-29T06:54:35.379Z,16.17
2023-01-29T06:57:31.534Z,13.43
2023-01-29T07:00:01.322Z,13.87
2023-01-29T07:02:40.335Z,14.50
2023-01-29T07:08:25.676Z,14.23
2023-01-29T07:11:11.826Z,13.20
2023-01-29T07:13:38.927Z,11.73
2023-01-29T07:19:01.491Z,12.80
2023-01-29T07:21:30.075Z,10.83
2023-01-29T07:23:57.661Z,11.73
2023-01-29T07:26:24.907Z,9.60
2023-01-29T07:28:53.332Z,10.57
2023-01-29T07:31:20.667Z,13.17
2023-01-29T07:33:50.944Z,12.73
2023-01-29T07:36:17.861Z,10.17
2023-01-29T07:38:48.793Z,11.97
2023-01-29T07:41:15.496Z,12.80
2023-01-29T07:43:42.198Z,11.90
2023-01-29T07:46:09.070Z,11.10
2023-01-29T07:48:36.082Z,11.80
2023-01-29T07:51:02.841Z,12.37
2023-01-29T07:53:30.551Z,12.20
2023-01-29T07:55:57.630Z,14.23
2023-01-29T07:58:24.313Z,14.20
2023-01-29T08:00:51.107Z,12.53
2023-01-29T08:03:20.115Z,12.30
2023-01-29T08:05:47.156Z,11.17
2023-01-29T08:08:14.527Z,11.57
2023-01-29T08:10:42.043Z,10.70
2023-01-29T08:13:08.814Z,9.87
2023-01-29T08:15:38.040Z,8.13
2023-01-29T08:18:06.410Z,8.00
2023-01-29T08:20:33.337Z,8.87
2023-01-29T08:23:05.888Z,9.00
2023-01-29T08:25:33.101Z,8.10
2023-01-29T08:28:00.873Z,8.47
2023-01-29T08:30:29.984Z,8.90
2023-01-29T08:32:56.801Z,6.67
2023-01-29T08:35:23.871Z,6.80
2023-01-29T08:37:59.426Z,8.00
2023-01-29T08:40:27.642Z,7.73
2023-01-29T08:43:02.017Z,8.47
2023-01-29T08:45:30.400Z,7.83
2023-01-29T08:47:57.329Z,7.87
2023-01-29T08:50:24.107Z,7.83
2023-01-29T08:52:59.168Z,9.93
2023-01-29T08:55:26.833Z,12.63
2023-01-29T08:57:53.903Z,10.37
2023-01-29T09:00:21.066Z,9.10
2023-01-29T09:02:47.784Z,7.53
2023-01-29T09:05:15.031Z,8.80
2023-01-29T09:07:42.063Z,10.13
2023-01-29T09:10:09.420Z,8.90
2023-01-29T09:12:36.130Z,9.80
2023-01-29T09:15:02.872Z,9.20
2023-01-29T09:17:29.535Z,10.73
2023-01-29T09:19:56.309Z,9.37
2023-01-29T09:22:22.975Z,10.17
2023-01-29T09:24:49.744Z,9.03
2023-01-29T09:27:16.483Z,9.10
2023-01-29T09:29:43.191Z,9.87
2023-01-29T09:32:09.944Z,8.17
2023-01-29T09:34:36.667Z,6.20
2023-01-29T09:37:03.442Z,7.07
2023-01-29T09:39:30.304Z,7.33
2023-01-29T09:42:21.491Z,8.37
2023-01-29T09:45:10.795Z,7.27
2023-01-29T09:47:37.799Z,10.10
2023-01-29T09:50:09.570Z,7.97
2023-01-29T09:52:46.306Z,7.37
2023-01-29T09:55:22.741Z,7.40
2023-01-29T09:57:56.085Z,9.57
2023-01-29T10:00:26.937Z,9.03
2023-01-29T10:03:09.215Z,9.00
2023-01-29T10:05:58.813Z,9.13
2023-01-29T10:08:51.271Z,8.43
2023-01-29T10:11:32.980Z,7.77
2023-01-29T10:14:17.337Z,10.57
2023-01-29T10:16:50.463Z,8.03
2023-01-29T10:19:38.632Z,6.87
2023-01-29T10:22:36.158Z,7.97
2023-01-29T10:25:10.523Z,7.53
2023-01-29T10:27:41.084Z,7.20
2023-01-29T10:30:20.914Z,7.80
2023-01-29T10:41:19.923Z,7.90
2023-01-29T10:43:47.968Z,6.33
2023-01-29T10:46:41.358Z,6.47
2023-01-29T10:49:37.188Z,8.60
2023-01-29T10:52:09.800Z,7.97
2023-01-29T10:55:04.201Z,7.03
2023-01-29T10:57:46.328Z,7.63
2023-01-29T11:00:25.300Z,7.23
2023-01-29T11:02:52.728Z,7.57
2023-01-29T11:05:41.447Z,7.03
2023-01-29T11:08:18.140Z,7.83
2023-01-29T11:11:18.052Z,8.60
2023-01-29T11:14:09.236Z,9.43
2023-01-29T11:16:48.168Z,8.63
2023-01-29T11:19:16.403Z,7.47
2023-01-29T11:22:01.212Z,8.10
2023-01-29T11:24:28.728Z,8.40
2023-01-29T11:26:58.899Z,11.83
2023-01-29T11:29:38.259Z,8.90
2023-01-29T11:32:08.530Z,8.03
2023-01-29T11:34:35.395Z,8.10
2023-01-29T11:37:04.569Z,8.80
2023-01-29T11:39:32.629Z,8.33
2023-01-29T11:42:04.030Z,7.20
2023-01-29T11:44:42.240Z,7.47
2023-01-29T11:47:24.132Z,8.10
2023-01-29T11:49:53.964Z,7.50
2023-01-29T11:52:36.585Z,7.43
2023-01-29T11:55:17.464Z,8.77
2023-01-29T11:57:49.123Z,7.97
2023-01-29T12:00:26.029Z,7.37
2023-01-29T12:03:23.857Z,8.37
2023-01-29T12:06:02.878Z,8.23
2023-01-29T12:08:38.232Z,10.77
2023-01-29T12:11:10.388Z,8.50
2023-01-29T12:13:37.203Z,8.27
2023-01-29T12:16:46.127Z,7.30
2023-01-29T12:19:40.486Z,10.30
2023-01-29T12:22:29.502Z,10.70
2023-01-29T12:25:07.210Z,9.33
2023-01-29T12:27:38.189Z,8.30
2023-01-29T12:30:29.018Z,7.53
2023-01-29T12:33:02.865Z,8.30
2023-01-29T12:44:49.085Z,8.50
2023-01-29T12:49:42.851Z,8.20
2023-01-29T12:52:30.551Z,8.20
2023-01-29T12:55:21.528Z,9.17
2023-01-29T12:58:00.259Z,8.23
2023-01-29T13:03:19.478Z,7.83
2023-01-29T13:05:55.619Z,8.33
2023-01-29T13:08:43.562Z,9.53
2023-01-29T13:11:37.552Z,8.20
2023-01-29T13:14:22.105Z,8.27
2023-01-29T13:16:54.344Z,7.10
2023-01-29T13:19:24.677Z,7.67
2023-01-29T13:27:28.671Z,8.80
2023-01-29T13:38:05.347Z,8.97
2023-01-29T13:45:45.947Z,8.10
2023-01-29T13:51:02.256Z,9.47
2023-01-29T13:53:34.639Z,7.30
2023-01-29T13:56:35.198Z,9.13
2023-01-29T13:59:04.138Z,9.57
2023-01-29T14:01:49.263Z,9.77
2023-01-29T14:04:18.746Z,11.97
2023-01-29T14:06:50.736Z,15.50
2023-01-29T14:09:50.002Z,11.83
2023-01-29T14:12:22.478Z,11.20
2023-01-29T14:14:49.195Z,10.17
2023-01-29T14:17:18.173Z,15.47
2023-01-29T14:19:53.804Z,12.93
2023-01-29T14:22:26.665Z,10.73
2023-01-29T14:25:01.961Z,10.97
2023-01-29T14:27:29.977Z,10.70
2023-01-29T14:30:02.627Z,11.23
2023-01-29T14:32:30.062Z,14.07
2023-01-29T14:35:02.107Z,15.70
2023-01-29T14:37:36.460Z,17.70
2023-01-29T14:40:12.381Z,14.40
2023-01-29T14:42:57.165Z,11.67
2023-01-29T14:48:36.630Z,11.57
2023-01-29T14:54:27.801Z,10.80
2023-01-29T14:59:51.317Z,13.53
2023-01-29T15:02:25.279Z,18.43
2023-01-29T15:07:46.448Z,20.80
2023-01-29T15:10:31.910Z,21.30
2023-01-29T15:13:08.146Z,20.03
2023-01-29T15:15:43.443Z,13.33
2023-01-29T15:18:27.846Z,11.10
2023-01-29T15:28:47.185Z,16.07
2023-01-29T15:39:23.608Z,11.40
2023-01-29T15:47:02.359Z,15.67
2023-01-29T15:57:41.545Z,14.10
2023-01-29T16:05:35.239Z,15.77
2023-01-29T16:10:30.287Z,19.97
2023-01-29T16:13:00.193Z,50.63
2023-01-29T16:17:52.338Z,41.57
2023-01-29T16:20:31.629Z,31.60
2023-01-29T16:22:59.212Z,20.37
2023-01-29T16:25:26.532Z,22.30
2023-01-29T16:30:34.918Z,20.20
2023-01-29T16:33:03.964Z,22.53
2023-01-29T16:35:31.304Z,23.77
2023-01-29T16:38:06.210Z,23.87
2023-01-29T16:41:19.002Z,22.70
2023-01-29T16:43:46.783Z,20.77
2023-01-29T16:46:27.587Z,29.23
2023-01-29T16:48:54.566Z,25.57
2023-01-29T16:54:02.152Z,13.27
2023-01-29T16:56:32.953Z,15.77
2023-01-29T17:01:43.368Z,11.27
2023-01-29T17:06:57.728Z,12.77
2023-01-29T17:15:00.719Z,19.13
2023-01-29T17:19:53.036Z,14.90
2023-01-29T17:24:51.370Z,17.00
2023-01-29T17:27:22.386Z,17.90
2023-01-29T17:29:49.658Z,17.57
2023-01-29T17:32:18.794Z,20.60
2023-01-29T17:34:46.874Z,20.43
2023-01-29T17:37:15.333Z,18.00
2023-01-29T17:39:43.493Z,19.30
2023-01-29T17:42:15.157Z,19.43
2023-01-29T17:44:43.178Z,19.73
2023-01-29T17:47:14.113Z,17.07
2023-01-29T17:49:41.624Z,16.70
2023-01-29T17:52:09.053Z,15.43
2023-01-29T17:54:35.893Z,16.03
2023-01-29T17:57:02.670Z,13.97
2023-01-29T17:59:32.224Z,14.10
2023-01-29T18:01:59.711Z,15.23
2023-01-29T18:04:26.736Z,15.77
2023-01-29T18:06:54.343Z,20.10
2023-01-29T18:09:21.701Z,19.47
2023-01-29T18:11:49.724Z,18.57
2023-01-29T18:14:17.315Z,18.70
2023-01-29T18:16:45.230Z,15.63
2023-01-29T18:19:27.152Z,16.93
2023-01-29T18:21:54.232Z,15.00
2023-01-29T18:24:21.286Z,13.97
2023-01-29T18:26:49.417Z,14.93
2023-01-29T18:29:16.221Z,16.50
2023-01-29T18:34:25.063Z,14.77
2023-01-29T18:41:59.008Z,16.03
2023-01-29T18:44:25.989Z,15.90
2023-01-29T18:49:18.077Z,16.50
2023-01-29T18:51:44.766Z,17.20
2023-01-29T19:02:25.744Z,15.63
2023-01-29T19:09:58.311Z,15.97
2023-01-29T19:12:26.132Z,16.13
2023-01-29T19:14:52.800Z,17.83
2023-01-29T19:17:20.243Z,17.07
2023-01-29T19:19:46.935Z,17.57
2023-01-29T19:22:13.660Z,17.07
2023-01-29T19:24:41.062Z,16.03
2023-01-29T19:27:07.783Z,15.93
2023-01-29T19:29:34.691Z,15.90
2023-01-29T19:32:01.675Z,16.90
2023-01-29T19:34:28.416Z,15.77
2023-01-29T19:36:55.183Z,16.67
2023-01-29T19:39:22.005Z,15.53
2023-01-29T19:41:48.683Z,15.47
2023-01-29T19:44:15.372Z,13.97
2023-01-29T19:46:42.067Z,14.53
2023-01-29T19:49:10.588Z,16.57
2023-01-29T19:51:37.375Z,16.73
2023-01-29T19:54:04.224Z,14.60
2023-01-29T19:56:31.019Z,15.10
2023-01-29T20:01:32.147Z,17.70
2023-01-29T20:06:31.087Z,16.77
2023-01-29T20:08:58.419Z,17.37
2023-01-29T20:11:25.342Z,23.27
2023-01-29T20:13:52.832Z,23.87
2023-01-29T20:18:45.608Z,17.43
2023-01-29T20:21:15.255Z,18.77
2023-01-29T20:23:44.252Z,17.07
2023-01-29T20:26:14.130Z,17.73
2023-01-29T20:28:44.217Z,18.93
2023-01-29T20:31:10.935Z,19.70
2023-01-29T20:33:39.479Z,20.07
2023-01-29T20:38:48.097Z,22.47
2023-01-29T20:44:01.993Z,18.00
2023-01-29T20:48:57.260Z,18.30
2023-01-29T20:51:23.963Z,19.20
2023-01-29T20:53:50.679Z,19.93
2023-01-29T20:56:18.295Z,20.20
2023-01-29T20:58:51.323Z,18.03
2023-01-29T21:01:20.230Z,18.67
2023-01-29T21:03:47.625Z,18.27
2023-01-29T21:06:14.911Z,19.10
2023-01-29T21:08:41.884Z,20.83
2023-01-29T21:11:09.639Z,21.17
2023-01-29T21:13:37.026Z,19.60
2023-01-29T21:16:04.441Z,19.50
2023-01-29T21:18:32.795Z,21.33
2023-01-29T21:20:59.491Z,19.53
2023-01-29T21:23:26.166Z,21.03
2023-01-29T21:25:52.844Z,21.50
2023-01-29T21:28:19.602Z,23.87
2023-01-29T21:30:46.451Z,22.00
2023-01-29T21:33:13.271Z,16.50
2023-01-29T21:35:39.946Z,19.43
2023-01-29T21:38:06.633Z,18.77
2023-01-29T21:40:33.523Z,24.87
2023-01-29T21:43:12.346Z,18.33
2023-01-29T21:45:39.544Z,17.80
2023-01-29T21:48:06.616Z,18.27
2023-01-29T21:50:33.388Z,18.77
2023-01-29T21:53:00.508Z,18.73
2023-01-29T21:55:27.325Z,20.33
2023-01-29T21:57:54.023Z,25.60
2023-01-29T22:00:20.870Z,24.17
2023-01-29T22:02:49.876Z,26.97
2023-01-29T22:05:19.775Z,24.83
2023-01-29T22:07:48.303Z,22.37
2023-01-29T22:10:16.942Z,26.83
2023-01-29T22:12:44.645Z,27.00
2023-01-29T22:15:12.122Z,24.60
2023-01-29T22:20:05.830Z,23.50
2023-01-29T22:22:32.486Z,25.13
2023-01-29T22:24:59.473Z,26.37
2023-01-29T22:27:26.206Z,25.83
2023-01-29T22:29:52.878Z,22.90
2023-01-29T22:32:19.681Z,26.10
2023-01-29T22:34:46.359Z,24.00
2023-01-29T22:37:13.061Z,29.70
2023-01-29T22:39:39.719Z,26.53
2023-01-29T22:42:06.398Z,27.97
2023-01-29T22:44:33.077Z,28.70
2023-01-29T22:47:00.276Z,27.53
2023-01-29T22:49:29.501Z,25.20
2023-01-29T22:52:11.631Z,26.53
2023-01-29T22:54:41.240Z,31.43
2023-01-29T22:57:10.813Z,24.90
2023-01-29T23:02:19.860Z,24.67
2023-01-29T23:04:46.643Z,22.20
2023-01-29T23:07:13.360Z,22.90
2023-01-29T23:12:21.736Z,23.37
2023-01-29T23:17:13.825Z,23.77
2023-01-29T23:22:05.898Z,22.70
2023-01-29T23:24:32.648Z,22.17
2023-01-29T23:27:17.307Z,23.00
2023-01-29T23:29:48.242Z,25.17
2023-01-29T23:32:17.931Z,24.90
2023-01-29T23:34:44.661Z,23.27
2023-01-29T23:37:11.739Z,23.73
2023-01-29T23:39:38.488Z,25.53
2023-01-29T23:42:05.277Z,22.80
2023-01-29T23:44:31.973Z,24.97
2023-01-29T23:46:58.784Z,25.23
2023-01-29T23:49:25.706Z,21.83
2023-01-29T23:51:52.492Z,24.53
2023-01-29T23:54:19.235Z,21.53
2023-01-29T23:59:28.919Z,20.97
